sensor_id;sensor_type;location;lat;lon;timestamp;pressure;altitude;pressure_sealevel;temperature;humidity
7280;BME280;3681;52.254;10.532;2022-08-07T00:01:19;101739.09;;;17.91;100.00
7280;BME280;3681;52.254;10.532;2022-08-07T00:05:02;101737.09;;;17.73;100.00
7280;BME280;3681;52.254;10.532;2022-08-07T00:08:24;101727.28;;;18.10;100.00
7280;BME280;3681;52.254;10.532;2022-08-07T00:11:47;101743.84;;;17.57;100.00
7280;BME280;3681;52.254;10.532;2022-08-07T00:15:17;101741.56;;;17.47;100.00
7280;BME280;3681;52.254;10.532;2022-08-07T00:18:40;101737.41;;;18.03;100.00
7280;BME280;3681;52.254;10.532;2022-08-07T00:22:02;101730.44;;;17.55;100.00
7280;BME280;3681;52.254;10.532;2022-08-07T00:25:23;101734.50;;;17.06;100.00
7280;BME280;3681;52.254;10.532;2022-08-07T00:28:45;101736.06;;;17.54;100.00
7280;BME280;3681;52.254;10.532;2022-08-07T00:32:17;101726.53;;;18.28;100.00
7280;BME280;3681;52.254;10.532;2022-08-07T00:35:48;101722.03;;;17.57;100.00
7280;BME280;3681;52.254;10.532;2022-08-07T00:39:11;101724.31;;;17.73;100.00
7280;BME280;3681;52.254;10.532;2022-08-07T00:42:36;101721.41;;;18.38;100.00
7280;BME280;3681;52.254;10.532;2022-08-07T00:45:59;101720.00;;;17.97;100.00
7280;BME280;3681;52.254;10.532;2022-08-07T00:49:22;101723.16;;;17.29;100.00
7280;BME280;3681;52.254;10.532;2022-08-07T00:53:04;101721.13;;;16.72;100.00
7280;BME280;3681;52.254;10.532;2022-08-07T00:56:30;101712.25;;;17.94;100.00
7280;BME280;3681;52.254;10.532;2022-08-07T00:59:53;101716.09;;;17.80;100.00
7280;BME280;3681;52.254;10.532;2022-08-07T01:03:14;101715.09;;;18.44;100.00
7280;BME280;3681;52.254;10.532;2022-08-07T01:06:36;101714.84;;;16.78;100.00
7280;BME280;3681;52.254;10.532;2022-08-07T01:09:59;101716.09;;;16.49;100.00
7280;BME280;3681;52.254;10.532;2022-08-07T01:13:26;101707.03;;;16.15;100.00
7280;BME280;3681;52.254;10.532;2022-08-07T01:16:55;101712.06;;;16.25;100.00
7280;BME280;3681;52.254;10.532;2022-08-07T01:20:21;101713.94;;;16.24;100.00
7280;BME280;3681;52.254;10.532;2022-08-07T01:23:53;101713.53;;;16.47;100.00
7280;BME280;3681;52.254;10.532;2022-08-07T01:27:14;101706.94;;;15.89;100.00
7280;BME280;3681;52.254;10.532;2022-08-07T01:30:40;101695.44;;;15.87;100.00
7280;BME280;3681;52.254;10.532;2022-08-07T01:34:04;101689.06;;;16.34;100.00
7280;BME280;3681;52.254;10.532;2022-08-07T01:37:32;101699.09;;;16.53;100.00
7280;BME280;3681;52.254;10.532;2022-08-07T01:40:59;101692.47;;;17.54;100.00
7280;BME280;3681;52.254;10.532;2022-08-07T01:44:22;101697.03;;;16.55;100.00
7280;BME280;3681;52.254;10.532;2022-08-07T01:47:44;101690.66;;;15.95;100.00
7280;BME280;3681;52.254;10.532;2022-08-07T01:51:27;101680.13;;;15.66;100.00
7280;BME280;3681;52.254;10.532;2022-08-07T01:55:10;101676.50;;;16.20;100.00
7280;BME280;3681;52.254;10.532;2022-08-07T01:58:48;101678.13;;;15.53;100.00
7280;BME280;3681;52.254;10.532;2022-08-07T02:02:14;101671.16;;;15.31;100.00
7280;BME280;3681;52.254;10.532;2022-08-07T02:06:01;101668.81;;;15.28;100.00
7280;BME280;3681;52.254;10.532;2022-08-07T02:09:46;101661.63;;;15.48;100.00
7280;BME280;3681;52.254;10.532;2022-08-07T02:13:15;101667.75;;;15.22;100.00
7280;BME280;3681;52.254;10.532;2022-08-07T02:16:46;101663.91;;;15.44;100.00
7280;BME280;3681;52.254;10.532;2022-08-07T02:20:12;101656.38;;;16.14;100.00
7280;BME280;3681;52.254;10.532;2022-08-07T02:23:43;101671.28;;;16.38;100.00
7280;BME280;3681;52.254;10.532;2022-08-07T02:27:05;101665.22;;;15.62;100.00
7280;BME280;3681;52.254;10.532;2022-08-07T02:30:29;101660.34;;;16.12;100.00
7280;BME280;3681;52.254;10.532;2022-08-07T02:33:56;101664.13;;;15.49;100.00
7280;BME280;3681;52.254;10.532;2022-08-07T02:37:39;101647.94;;;15.35;100.00
7280;BME280;3681;52.254;10.532;2022-08-07T02:41:04;101657.66;;;16.58;100.00
7280;BME280;3681;52.254;10.532;2022-08-07T02:44:31;101657.38;;;17.26;100.00
7280;BME280;3681;52.254;10.532;2022-08-07T02:47:58;101654.63;;;17.26;100.00
7280;BME280;3681;52.254;10.532;2022-08-07T02:51:24;101657.00;;;17.09;100.00
7280;BME280;3681;52.254;10.532;2022-08-07T02:55:11;101660.63;;;17.48;100.00
7280;BME280;3681;52.254;10.532;2022-08-07T02:58:49;101660.22;;;17.44;100.00
7280;BME280;3681;52.254;10.532;2022-08-07T03:02:15;101665.81;;;16.65;100.00
7280;BME280;3681;52.254;10.532;2022-08-07T03:05:36;101670.75;;;17.27;100.00
7280;BME280;3681;52.254;10.532;2022-08-07T03:09:04;101668.03;;;17.27;100.00
7280;BME280;3681;52.254;10.532;2022-08-07T03:12:31;101678.38;;;16.92;100.00
7280;BME280;3681;52.254;10.532;2022-08-07T03:15:58;101685.06;;;17.09;100.00
7280;BME280;3681;52.254;10.532;2022-08-07T03:19:23;101675.63;;;17.12;100.00
7280;BME280;3681;52.254;10.532;2022-08-07T03:22:57;101681.13;;;16.79;100.00
7280;BME280;3681;52.254;10.532;2022-08-07T03:26:24;101674.66;;;16.73;100.00
7280;BME280;3681;52.254;10.532;2022-08-07T03:29:47;101681.88;;;16.07;100.00
7280;BME280;3681;52.254;10.532;2022-08-07T03:33:14;101676.94;;;16.83;100.00
7280;BME280;3681;52.254;10.532;2022-08-07T03:36:40;101680.88;;;16.08;100.00
7280;BME280;3681;52.254;10.532;2022-08-07T03:40:03;101673.31;;;16.03;100.00
7280;BME280;3681;52.254;10.532;2022-08-07T03:43:37;101671.19;;;15.92;100.00
7280;BME280;3681;52.254;10.532;2022-08-07T03:47:16;101668.31;;;16.99;100.00
7280;BME280;3681;52.254;10.532;2022-08-07T03:50:42;101670.44;;;16.84;100.00
7280;BME280;3681;52.254;10.532;2022-08-07T03:54:18;101670.75;;;17.27;100.00
7280;BME280;3681;52.254;10.532;2022-08-07T03:58:02;101677.94;;;16.29;100.00
7280;BME280;3681;52.254;10.532;2022-08-07T04:01:45;101677.47;;;15.99;100.00
7280;BME280;3681;52.254;10.532;2022-08-07T04:05:13;101677.72;;;16.17;100.00
7280;BME280;3681;52.254;10.532;2022-08-07T04:08:35;101681.88;;;16.07;100.00
7280;BME280;3681;52.254;10.532;2022-08-07T04:11:58;101676.31;;;16.54;100.00
7280;BME280;3681;52.254;10.532;2022-08-07T04:15:40;101679.44;;;16.78;100.00
7280;BME280;3681;52.254;10.532;2022-08-07T04:19:03;101674.22;;;16.50;100.00
7280;BME280;3681;52.254;10.532;2022-08-07T04:22:40;101680.66;;;16.09;100.00
7280;BME280;3681;52.254;10.532;2022-08-07T04:26:23;101683.66;;;16.80;100.00
7280;BME280;3681;52.254;10.532;2022-08-07T04:29:49;101680.09;;;16.73;100.00
7280;BME280;3681;52.254;10.532;2022-08-07T04:33:30;101683.47;;;15.33;100.00
7280;BME280;3681;52.254;10.532;2022-08-07T04:36:57;101677.94;;;16.42;100.00
7280;BME280;3681;52.254;10.532;2022-08-07T04:40:20;101693.53;;;15.39;100.00
7280;BME280;3681;52.254;10.532;2022-08-07T04:43:49;101686.44;;;15.86;100.00
7280;BME280;3681;52.254;10.532;2022-08-07T04:47:40;101686.75;;;15.22;100.00
7280;BME280;3681;52.254;10.532;2022-08-07T04:51:25;101682.03;;;15.72;100.00
7280;BME280;3681;52.254;10.532;2022-08-07T04:54:56;101684.75;;;15.72;100.00
7280;BME280;3681;52.254;10.532;2022-08-07T04:58:25;101682.06;;;15.44;100.00
7280;BME280;3681;52.254;10.532;2022-08-07T05:02:17;101690.88;;;15.11;100.00
7280;BME280;3681;52.254;10.532;2022-08-07T05:05:44;101683.00;;;15.23;100.00
7280;BME280;3681;52.254;10.532;2022-08-07T05:09:23;101684.88;;;16.38;100.00
7280;BME280;3681;52.254;10.532;2022-08-07T05:13:08;101689.03;;;16.21;100.00
7280;BME280;3681;52.254;10.532;2022-08-07T05:16:56;101688.41;;;16.19;100.00
7280;BME280;3681;52.254;10.532;2022-08-07T05:20:23;101690.31;;;16.45;100.00
7280;BME280;3681;52.254;10.532;2022-08-07T05:23:54;101688.84;;;16.69;100.00
7280;BME280;3681;52.254;10.532;2022-08-07T05:27:18;101692.34;;;17.29;100.00
7280;BME280;3681;52.254;10.532;2022-08-07T05:31:03;101703.44;;;17.34;100.00
7280;BME280;3681;52.254;10.532;2022-08-07T05:34:27;101702.19;;;17.30;100.00
7280;BME280;3681;52.254;10.532;2022-08-07T05:37:52;101704.38;;;18.11;100.00
7280;BME280;3681;52.254;10.532;2022-08-07T05:41:30;101704.59;;;17.65;100.00
7280;BME280;3681;52.254;10.532;2022-08-07T05:45:12;101698.22;;;18.22;100.00
7280;BME280;3681;52.254;10.532;2022-08-07T05:48:59;101703.00;;;18.33;100.00
7280;BME280;3681;52.254;10.532;2022-08-07T05:52:32;101702.56;;;18.30;100.00
7280;BME280;3681;52.254;10.532;2022-08-07T05:56:01;101708.13;;;18.48;100.00
7280;BME280;3681;52.254;10.532;2022-08-07T05:59:30;101711.38;;;18.00;100.00
7280;BME280;3681;52.254;10.532;2022-08-07T06:03:13;101719.44;;;18.52;100.00
7280;BME280;3681;52.254;10.532;2022-08-07T06:06:38;101726.28;;;17.98;100.00
7280;BME280;3681;52.254;10.532;2022-08-07T06:10:09;101722.44;;;18.12;100.00
7280;BME280;3681;52.254;10.532;2022-08-07T06:13:37;101718.84;;;17.80;100.00
7280;BME280;3681;52.254;10.532;2022-08-07T06:17:20;101722.44;;;17.74;100.00
7280;BME280;3681;52.254;10.532;2022-08-07T06:20:52;101727.72;;;18.95;100.00
7280;BME280;3681;52.254;10.532;2022-08-07T06:24:35;101729.34;;;19.21;100.00
7280;BME280;3681;52.254;10.532;2022-08-07T06:28:17;101723.44;;;19.42;100.00
7280;BME280;3681;52.254;10.532;2022-08-07T06:31:48;101720.44;;;18.57;100.00
7280;BME280;3681;52.254;10.532;2022-08-07T06:35:12;101730.97;;;18.54;100.00
7280;BME280;3681;52.254;10.532;2022-08-07T06:38:38;101728.56;;;18.71;100.00
7280;BME280;3681;52.254;10.532;2022-08-07T06:42:25;101722.88;;;18.72;100.00
7280;BME280;3681;52.254;10.532;2022-08-07T06:46:00;101722.91;;;19.15;100.00
7280;BME280;3681;52.254;10.532;2022-08-07T06:49:26;101718.47;;;20.06;100.00
7280;BME280;3681;52.254;10.532;2022-08-07T06:52:51;101733.22;;;20.05;100.00
7280;BME280;3681;52.254;10.532;2022-08-07T06:56:16;101722.59;;;19.79;100.00
7280;BME280;3681;52.254;10.532;2022-08-07T07:00:24;101727.59;;;20.00;100.00
7280;BME280;3681;52.254;10.532;2022-08-07T07:03:47;101725.16;;;20.10;100.00
7280;BME280;3681;52.254;10.532;2022-08-07T07:07:32;101736.72;;;20.54;100.00
7280;BME280;3681;52.254;10.532;2022-08-07T07:11:13;101724.00;;;21.53;100.00
7280;BME280;3681;52.254;10.532;2022-08-07T07:14:58;101717.81;;;21.34;100.00
7280;BME280;3681;52.254;10.532;2022-08-07T07:18:28;101720.56;;;20.76;100.00
7280;BME280;3681;52.254;10.532;2022-08-07T07:22:08;101716.06;;;21.05;100.00
7280;BME280;3681;52.254;10.532;2022-08-07T07:25:51;101715.56;;;20.85;100.00
7280;BME280;3681;52.254;10.532;2022-08-07T07:29:37;101720.44;;;21.53;100.00
7280;BME280;3681;52.254;10.532;2022-08-07T07:33:20;101713.16;;;21.58;100.00
7280;BME280;3681;52.254;10.532;2022-08-07T07:36:48;101708.06;;;22.07;100.00
7280;BME280;3681;52.254;10.532;2022-08-07T07:40:15;101705.09;;;22.37;100.00
7280;BME280;3681;52.254;10.532;2022-08-07T07:43:40;101707.69;;;22.78;100.00
7280;BME280;3681;52.254;10.532;2022-08-07T07:47:23;101703.19;;;22.88;100.00
7280;BME280;3681;52.254;10.532;2022-08-07T07:50:49;101702.84;;;22.51;100.00
7280;BME280;3681;52.254;10.532;2022-08-07T07:54:15;101703.66;;;22.52;100.00
7280;BME280;3681;52.254;10.532;2022-08-07T07:57:41;101693.94;;;22.61;100.00
7280;BME280;3681;52.254;10.532;2022-08-07T08:01:14;101693.88;;;23.50;100.00
7280;BME280;3681;52.254;10.532;2022-08-07T08:04:55;101688.47;;;23.16;100.00
7280;BME280;3681;52.254;10.532;2022-08-07T08:08:18;101687.28;;;23.51;100.00
7280;BME280;3681;52.254;10.532;2022-08-07T08:11:57;101677.19;;;23.79;100.00
7280;BME280;3681;52.254;10.532;2022-08-07T08:15:25;101675.25;;;23.35;100.00
7280;BME280;3681;52.254;10.532;2022-08-07T08:19:11;101685.66;;;23.11;100.00
7280;BME280;3681;52.254;10.532;2022-08-07T08:22:53;101675.03;;;24.13;100.00
7280;BME280;3681;52.254;10.532;2022-08-07T08:26:34;101679.88;;;24.28;100.00
7280;BME280;3681;52.254;10.532;2022-08-07T08:30:14;101675.25;;;23.57;100.00
7280;BME280;3681;52.254;10.532;2022-08-07T08:33:39;101684.06;;;24.03;100.00
7280;BME280;3681;52.254;10.532;2022-08-07T08:37:10;101679.00;;;24.49;100.00
7280;BME280;3681;52.254;10.532;2022-08-07T08:40:56;101676.50;;;24.20;100.00
7280;BME280;3681;52.254;10.532;2022-08-07T08:44:26;101674.22;;;24.39;100.00
7280;BME280;3681;52.254;10.532;2022-08-07T08:48:07;101672.25;;;24.08;100.00
7280;BME280;3681;52.254;10.532;2022-08-07T08:51:32;101664.22;;;25.02;100.00
7280;BME280;3681;52.254;10.532;2022-08-07T08:55:25;101668.31;;;25.00;100.00
7280;BME280;3681;52.254;10.532;2022-08-07T08:59:13;101665.44;;;24.80;100.00
7280;BME280;3681;52.254;10.532;2022-08-07T09:02:43;101666.09;;;25.49;100.00
7280;BME280;3681;52.254;10.532;2022-08-07T09:06:20;101656.22;;;25.64;100.00
7280;BME280;3681;52.254;10.532;2022-08-07T09:09:57;101658.56;;;24.82;100.00
7280;BME280;3681;52.254;10.532;2022-08-07T09:13:29;101650.50;;;25.75;100.00
7280;BME280;3681;52.254;10.532;2022-08-07T09:17:03;101648.06;;;26.50;100.00
7280;BME280;3681;52.254;10.532;2022-08-07T09:20:44;101650.81;;;26.30;92.89
7280;BME280;3681;52.254;10.532;2022-08-07T09:24:45;101639.25;;;26.48;87.99
7280;BME280;3681;52.254;10.532;2022-08-07T09:28:27;101637.31;;;26.44;95.76
7280;BME280;3681;52.254;10.532;2022-08-07T09:32:18;101637.81;;;26.20;92.34
7280;BME280;3681;52.254;10.532;2022-08-07T09:35:52;101634.34;;;25.47;93.95
7280;BME280;3681;52.254;10.532;2022-08-07T09:39:44;101621.81;;;26.53;92.84
7280;BME280;3681;52.254;10.532;2022-08-07T09:43:25;101615.41;;;26.83;83.03
7280;BME280;3681;52.254;10.532;2022-08-07T09:47:16;101614.59;;;25.91;88.76
7280;BME280;3681;52.254;10.532;2022-08-07T09:51:14;101616.00;;;26.03;90.59
7280;BME280;3681;52.254;10.532;2022-08-07T09:55:15;101608.44;;;26.96;87.34
7280;BME280;3681;52.254;10.532;2022-08-07T09:59:27;101611.88;;;28.26;81.47
7280;BME280;3681;52.254;10.532;2022-08-07T10:07:27;101592.84;;;27.80;74.18
7280;BME280;3681;52.254;10.532;2022-08-07T10:11:24;101596.28;;;27.56;79.73
7280;BME280;3681;52.254;10.532;2022-08-07T10:15:22;101597.97;;;28.31;73.38
7280;BME280;3681;52.254;10.532;2022-08-07T10:18:58;101585.25;;;28.30;75.27
7280;BME280;3681;52.254;10.532;2022-08-07T10:22:48;101580.91;;;28.77;66.14
7280;BME280;3681;52.254;10.532;2022-08-07T10:26:31;101579.25;;;26.13;83.30
7280;BME280;3681;52.254;10.532;2022-08-07T10:30:02;101584.50;;;25.74;91.35
7280;BME280;3681;52.254;10.532;2022-08-07T10:33:45;101587.16;;;25.38;93.20
7280;BME280;3681;52.254;10.532;2022-08-07T10:37:42;101574.47;;;25.57;91.93
7280;BME280;3681;52.254;10.532;2022-08-07T10:41:32;101573.97;;;26.62;82.14
7280;BME280;3681;52.254;10.532;2022-08-07T10:45:22;101574.41;;;26.95;84.08
7280;BME280;3681;52.254;10.532;2022-08-07T10:49:21;101579.66;;;24.76;95.39
7280;BME280;3681;52.254;10.532;2022-08-07T10:53:16;101570.41;;;24.18;96.58
7280;BME280;3681;52.254;10.532;2022-08-07T10:56:52;101568.56;;;25.18;95.72
7280;BME280;3681;52.254;10.532;2022-08-07T11:00:21;101567.84;;;24.81;96.43
7280;BME280;3681;52.254;10.532;2022-08-07T11:04:10;101564.66;;;24.57;97.25
7280;BME280;3681;52.254;10.532;2022-08-07T11:07:58;101552.69;;;25.71;93.86
7280;BME280;3681;52.254;10.532;2022-08-07T11:11:30;101546.03;;;25.47;97.19
7280;BME280;3681;52.254;10.532;2022-08-07T11:15:02;101545.25;;;24.89;96.74
7280;BME280;3681;52.254;10.532;2022-08-07T11:18:38;101550.25;;;25.02;96.90
7280;BME280;3681;52.254;10.532;2022-08-07T11:22:14;101532.84;;;26.10;84.77
7280;BME280;3681;52.254;10.532;2022-08-07T11:25:50;101532.13;;;28.17;72.21
7280;BME280;3681;52.254;10.532;2022-08-07T11:29:16;101530.56;;;28.06;72.08
7280;BME280;3681;52.254;10.532;2022-08-07T11:33:10;101525.31;;;28.34;70.22
7280;BME280;3681;52.254;10.532;2022-08-07T11:36:41;101511.88;;;27.04;75.11
7280;BME280;3681;52.254;10.532;2022-08-07T11:40:15;101509.34;;;26.23;76.25
7280;BME280;3681;52.254;10.532;2022-08-07T11:43:53;101509.84;;;27.20;77.33
7280;BME280;3681;52.254;10.532;2022-08-07T11:47:44;101505.19;;;26.20;81.38
7280;BME280;3681;52.254;10.532;2022-08-07T11:51:34;101501.88;;;26.28;86.43
7280;BME280;3681;52.254;10.532;2022-08-07T11:55:12;101502.69;;;26.39;80.82
7280;BME280;3681;52.254;10.532;2022-08-07T11:59:08;101499.53;;;27.31;73.57
7280;BME280;3681;52.254;10.532;2022-08-07T12:03:35;101501.59;;;27.93;69.84
7280;BME280;3681;52.254;10.532;2022-08-07T12:07:13;101498.09;;;28.41;63.25
7280;BME280;3681;52.254;10.532;2022-08-07T12:10:58;101493.91;;;29.48;57.34
7280;BME280;3681;52.254;10.532;2022-08-07T12:14:47;101487.41;;;28.00;62.55
7280;BME280;3681;52.254;10.532;2022-08-07T12:18:24;101482.25;;;27.49;69.23
7280;BME280;3681;52.254;10.532;2022-08-07T12:21:56;101475.88;;;27.09;72.57
7280;BME280;3681;52.254;10.532;2022-08-07T12:25:45;101472.81;;;26.51;76.13
7280;BME280;3681;52.254;10.532;2022-08-07T12:29:40;101470.66;;;27.47;65.57
7280;BME280;3681;52.254;10.532;2022-08-07T12:33:09;101471.72;;;27.85;61.10
7280;BME280;3681;52.254;10.532;2022-08-07T12:36:51;101469.25;;;28.13;60.75
7280;BME280;3681;52.254;10.532;2022-08-07T12:40:25;101461.03;;;28.32;64.52
7280;BME280;3681;52.254;10.532;2022-08-07T12:44:10;101460.59;;;28.67;59.45
7280;BME280;3681;52.254;10.532;2022-08-07T12:47:39;101457.47;;;29.68;59.90
7280;BME280;3681;52.254;10.532;2022-08-07T12:51:11;101455.88;;;28.68;56.62
7280;BME280;3681;52.254;10.532;2022-08-07T12:54:43;101454.28;;;27.11;65.54
7280;BME280;3681;52.254;10.532;2022-08-07T12:58:16;101450.31;;;27.28;68.64
7280;BME280;3681;52.254;10.532;2022-08-07T13:02:01;101450.25;;;25.83;75.54
7280;BME280;3681;52.254;10.532;2022-08-07T13:05:40;101443.72;;;27.19;68.96
7280;BME280;3681;52.254;10.532;2022-08-07T13:13:43;101430.50;;;29.17;55.72
7280;BME280;3681;52.254;10.532;2022-08-07T13:17:15;101444.13;;;28.52;57.27
7280;BME280;3681;52.254;10.532;2022-08-07T13:20:43;101443.47;;;28.41;58.51
7280;BME280;3681;52.254;10.532;2022-08-07T13:24:18;101432.13;;;28.38;65.07
7280;BME280;3681;52.254;10.532;2022-08-07T13:27:50;101423.47;;;27.91;70.51
7280;BME280;3681;52.254;10.532;2022-08-07T13:31:39;101423.19;;;27.59;70.05
7280;BME280;3681;52.254;10.532;2022-08-07T13:35:26;101426.00;;;28.41;65.15
7280;BME280;3681;52.254;10.532;2022-08-07T13:39:16;101420.88;;;27.37;70.81
7280;BME280;3681;52.254;10.532;2022-08-07T13:43:05;101423.69;;;27.32;72.83
7280;BME280;3681;52.254;10.532;2022-08-07T13:46:35;101417.03;;;27.96;63.04
7280;BME280;3681;52.254;10.532;2022-08-07T13:50:08;101410.75;;;28.14;61.23
7280;BME280;3681;52.254;10.532;2022-08-07T13:53:59;101410.94;;;27.99;62.16
7280;BME280;3681;52.254;10.532;2022-08-07T13:57:25;101399.47;;;27.48;70.88
7280;BME280;3681;52.254;10.532;2022-08-07T14:00:59;101397.41;;;27.63;69.89
7280;BME280;3681;52.254;10.532;2022-08-07T14:04:30;101403.84;;;27.88;68.76
7280;BME280;3681;52.254;10.532;2022-08-07T14:07:56;101397.59;;;28.25;63.15
7280;BME280;3681;52.254;10.532;2022-08-07T14:11:24;101398.47;;;28.20;64.48
7280;BME280;3681;52.254;10.532;2022-08-07T14:15:15;101391.28;;;28.43;67.27
7280;BME280;3681;52.254;10.532;2022-08-07T14:18:44;101385.91;;;28.52;60.68
7280;BME280;3681;52.254;10.532;2022-08-07T14:22:19;101375.22;;;28.83;61.75
7280;BME280;3681;52.254;10.532;2022-08-07T14:26:04;101378.03;;;29.53;57.16
7280;BME280;3681;52.254;10.532;2022-08-07T14:29:32;101372.00;;;28.76;60.64
7280;BME280;3681;52.254;10.532;2022-08-07T14:33:27;101366.47;;;28.95;57.36
7280;BME280;3681;52.254;10.532;2022-08-07T14:37:08;101365.22;;;29.20;56.38
7280;BME280;3681;52.254;10.532;2022-08-07T14:40:36;101360.03;;;29.32;58.53
7280;BME280;3681;52.254;10.532;2022-08-07T14:44:02;101365.50;;;29.37;53.86
7280;BME280;3681;52.254;10.532;2022-08-07T14:47:38;101362.50;;;29.01;59.99
7280;BME280;3681;52.254;10.532;2022-08-07T14:51:04;101365.16;;;27.78;64.33
7280;BME280;3681;52.254;10.532;2022-08-07T14:54:52;101359.78;;;28.34;62.27
7280;BME280;3681;52.254;10.532;2022-08-07T14:58:24;101360.13;;;28.52;59.33
7280;BME280;3681;52.254;10.532;2022-08-07T15:01:52;101364.38;;;28.44;60.28
7280;BME280;3681;52.254;10.532;2022-08-07T15:05:23;101357.19;;;28.43;58.59
7280;BME280;3681;52.254;10.532;2022-08-07T15:08:46;101346.22;;;29.27;57.96
7280;BME280;3681;52.254;10.532;2022-08-07T15:12:18;101349.00;;;28.09;65.01
7280;BME280;3681;52.254;10.532;2022-08-07T15:15:52;101348.25;;;27.45;68.27
7280;BME280;3681;52.254;10.532;2022-08-07T15:19:18;101354.84;;;27.83;66.11
7280;BME280;3681;52.254;10.532;2022-08-07T15:23:08;101341.41;;;27.72;66.12
7280;BME280;3681;52.254;10.532;2022-08-07T15:26:44;101347.19;;;27.99;63.60
7280;BME280;3681;52.254;10.532;2022-08-07T15:30:09;101342.22;;;27.72;65.68
7280;BME280;3681;52.254;10.532;2022-08-07T15:33:39;101343.81;;;27.49;67.49
7280;BME280;3681;52.254;10.532;2022-08-07T15:37:10;101347.44;;;27.45;67.94
7280;BME280;3681;52.254;10.532;2022-08-07T15:40:48;101340.63;;;27.90;64.17
7280;BME280;3681;52.254;10.532;2022-08-07T15:44:42;101334.19;;;28.61;57.62
7280;BME280;3681;52.254;10.532;2022-08-07T15:48:29;101336.22;;;27.89;62.32
7280;BME280;3681;52.254;10.532;2022-08-07T15:51:51;101331.41;;;27.76;65.01
7280;BME280;3681;52.254;10.532;2022-08-07T15:55:18;101331.78;;;27.35;67.50
7280;BME280;3681;52.254;10.532;2022-08-07T15:59:03;101338.59;;;27.13;69.15
7280;BME280;3681;52.254;10.532;2022-08-07T16:02:40;101332.47;;;26.77;72.52
7280;BME280;3681;52.254;10.532;2022-08-07T16:06:07;101329.09;;;27.25;70.58
7280;BME280;3681;52.254;10.532;2022-08-07T16:09:35;101330.34;;;26.64;72.37
7280;BME280;3681;52.254;10.532;2022-08-07T16:17:28;101326.47;;;27.38;70.52
7280;BME280;3681;52.254;10.532;2022-08-07T16:21:18;101327.44;;;26.84;69.56
7280;BME280;3681;52.254;10.532;2022-08-07T16:25:06;101326.06;;;26.87;70.96
7280;BME280;3681;52.254;10.532;2022-08-07T16:28:53;101321.16;;;27.13;71.14
7280;BME280;3681;52.254;10.532;2022-08-07T16:32:42;101320.94;;;26.65;74.94
7280;BME280;3681;52.254;10.532;2022-08-07T16:36:16;101319.69;;;26.86;77.34
7280;BME280;3681;52.254;10.532;2022-08-07T16:39:55;101319.75;;;26.76;73.16
7280;BME280;3681;52.254;10.532;2022-08-07T16:48:17;101314.13;;;26.52;74.47
7280;BME280;3681;52.254;10.532;2022-08-07T16:52:02;101318.28;;;27.28;84.32
